Lircay — A8IM4 — position and weather

sailwx.info

Track history (hours):
 
Tides and Currents Weather Stations Pressure Air Temp Water Temp Dewpoint Dewpoint Depression Visibility Wind Speed Wind Dir Waves Ship Positions

Lircay

Last reported at 2017-Oct-12 04:49 UTC. Time now 2017-Oct-17 04:15 UTC.
Position N 27°39' W 016°26'.

Length 267.7 m; beam 32.3 m; draft 12.5 m.

Type: Ship (hazmat cat A). MMSI: 636015181.

Date/timePositionNaut miles runAvg speedWind from/ knotsBaromVisibWave heightAir tempDewpointWater temp
2017-Oct-12 04:49N 27°39' W 016°26'716.8
2017-Oct-12 04:25N 27°45' W 016°24'916.5
2017-Oct-12 03:52N 27°54' W 016°22'616.6
2017-Oct-12 03:31N 27°59' W 016°19'916.7
2017-Oct-12 02:57N 28°07' W 016°13'817.1
2017-Oct-12 02:30N 28°13' W 016°08'816.4
2017-Oct-12 01:59N 28°21' W 016°05'715.3
2017-Oct-12 01:30N 28°26' W 016°11'3 6.7
2017-Oct-12 00:59N 28°29' W 016°14'0 0.2
2017-Oct-11 23:35N 28°29' W 016°13'0 0.0
2017-Oct-11 23:29N 28°29' W 016°13'0 0.0
2017-Oct-11 23:00N 28°29' W 016°13'0 0.0
2017-Oct-11 22:30N 28°29' W 016°13'0 0.0
2017-Oct-11 21:52N 28°29' W 016°13'0 0.0
2017-Oct-11 21:30N 28°29' W 016°13'0 0.0
2017-Oct-11 21:00N 28°29' W 016°13'0 0.0
2017-Oct-11 20:30N 28°29' W 016°13'0 0.0
2017-Oct-11 20:00N 28°29' W 016°13'0 0.0
2017-Oct-11 19:30N 28°29' W 016°13'0 0.0
2017-Oct-11 17:55N 28°29' W 016°13'0 0.0
2017-Oct-11 17:28N 28°29' W 016°13'9 0.5
2017-Oct-10 23:57N 28°23' W 016°06'0 0.8
2017-Oct-10 23:30N 28°24' W 016°06'1 1.0
2017-Oct-10 23:00N 28°24' W 016°06'1 1.4
2017-Oct-10 22:30N 28°25' W 016°06'2 3.7
2017-Oct-10 22:00N 28°26' W 016°05'612.2
2017-Oct-10 21:31N 28°25' W 015°58'612.3
2017-Oct-10 21:00N 28°30' W 015°53'611.9
2017-Oct-10 20:30N 28°34' W 015°48'612.0
2017-Oct-10 20:00N 28°38' W 015°43'612.0
2017-Oct-10 19:30N 28°42' W 015°38'712.1
2017-Oct-10 18:53N 28°47' W 015°32'512.1
2017-Oct-10 18:30N 28°51' W 015°28'612.1
2017-Oct-10 18:00N 28°55' W 015°23'612.3
2017-Oct-10 17:29N 28°59' W 015°18'612.4
2017-Oct-10 17:00N 29°03' W 015°12'712.2
2017-Oct-10 16:27N 29°08' W 015°07'511.8
2017-Oct-10 16:00N 29°11' W 015°02'611.8
2017-Oct-10 15:30N 29°15' W 014°57'611.8
2017-Oct-10 15:01N 29°19' W 014°52'1211.9
2017-Oct-10 14:01N 29°27' W 014°42'612.0
2017-Oct-10 13:29N 29°31' W 014°37'612.1
2017-Oct-10 12:59N 29°35' W 014°32'32412.2
2017-Oct-09 10:33N 33°14' W 009°52'114.4
2017-Oct-09 10:29N 33°14' W 009°51'6215.1
2017-Oct-09 06:22N 33°57' W 008°56'720.0
2017-Oct-09 06:00N 34°01' W 008°50'1020.2
2017-Oct-09 05:30N 34°08' W 008°41'1020.1
2017-Oct-09 05:00N 34°15' W 008°32'1020.0
2017-Oct-09 04:30N 34°22' W 008°23'1019.9
2017-Oct-09 04:00N 34°28' W 008°14'1019.8
2017-Oct-09 03:29N 34°36' W 008°05'1219.8
2017-Oct-09 02:53N 34°44' W 007°55'2220.1
2017-Oct-09 01:48N 34°58' W 007°35'620.2
2017-Oct-09 01:31N 35°02' W 007°29'1020.2
2017-Oct-09 01:00N 35°09' W 007°20'1020.0
2017-Oct-09 00:30N 35°16' W 007°12'1019.4
2017-Oct-09 00:00N 35°22' W 007°03'1020.0
2017-Oct-08 23:30N 35°29' W 006°53'1820.2
2017-Oct-08 22:38N 35°41' W 006°38'920.6
2017-Oct-08 22:12N 35°47' W 006°29'420.5
2017-Oct-08 22:00N 35°50' W 006°26'1219.5
2017-Oct-08 21:23N 35°57' W 006°14'33 0.8
2017-Oct-07 05:13N 35°52' W 005°34'0 0.0
2017-Oct-07 04:49N 35°52' W 005°34'0 0.1
2017-Oct-07 02:07N 35°52' W 005°34'0 0.1
2017-Oct-07 01:49N 35°52' W 005°34'0 0.0
2017-Oct-06 18:58N 35°52' W 005°34'128 8.8
2017-Oct-06 04:25N 34°18' W 007°20'614.2
2017-Oct-06 03:59N 34°13' W 007°24'33 1.0
2017-Oct-04 18:15N 33°42' W 007°35'0 0.0
2017-Oct-04 17:57N 33°42' W 007°35'48 1.3
2017-Oct-03 03:34N 34°27' W 007°15'2114.5
2017-Oct-03 02:05N 34°46' W 007°03'114.5
2017-Oct-03 02:00N 34°47' W 007°02'113 6.7
2017-Oct-02 09:16N 36°07' W 005°24'0 0.3
2017-Oct-02 08:58N 36°07' W 005°24'2 4.0
2017-Oct-02 08:31N 36°06' W 005°23'2 4.3
2017-Oct-02 08:00N 36°04' W 005°22'1 1.6
2017-Oct-02 07:30N 36°03' W 005°21'611.5
2017-Oct-02 07:00N 36°03' W 005°14'  
Track history (hours):
 
Tides and Currents Weather Stations Pressure Air Temp Water Temp Dewpoint Dewpoint Depression Visibility Wind Speed Wind Dir Waves Ship Positions

Lircay

Last reported at 2017-Oct-12 04:49 UTC. Time now 2017-Oct-17 04:15 UTC.
Position N 27°39' W 016°26'.

Length 267.7 m; beam 32.3 m; draft 12.5 m.

Type: Ship (hazmat cat A). MMSI: 636015181.

Date/timePositionNaut miles runAvg speedWind from/ knotsBaromVisibWave heightAir tempDewpointWater temp
2017-Oct-12 04:49N 27°39' W 016°26'716.8
2017-Oct-12 04:25N 27°45' W 016°24'916.5
2017-Oct-12 03:52N 27°54' W 016°22'616.6
2017-Oct-12 03:31N 27°59' W 016°19'916.7
2017-Oct-12 02:57N 28°07' W 016°13'817.1
2017-Oct-12 02:30N 28°13' W 016°08'816.4
2017-Oct-12 01:59N 28°21' W 016°05'715.3
2017-Oct-12 01:30N 28°26' W 016°11'3 6.7
2017-Oct-12 00:59N 28°29' W 016°14'0 0.2
2017-Oct-11 23:35N 28°29' W 016°13'0 0.0
2017-Oct-11 23:29N 28°29' W 016°13'0 0.0
2017-Oct-11 23:00N 28°29' W 016°13'0 0.0
2017-Oct-11 22:30N 28°29' W 016°13'0 0.0
2017-Oct-11 21:52N 28°29' W 016°13'0 0.0
2017-Oct-11 21:30N 28°29' W 016°13'0 0.0
2017-Oct-11 21:00N 28°29' W 016°13'0 0.0
2017-Oct-11 20:30N 28°29' W 016°13'0 0.0
2017-Oct-11 20:00N 28°29' W 016°13'0 0.0
2017-Oct-11 19:30N 28°29' W 016°13'0 0.0
2017-Oct-11 17:55N 28°29' W 016°13'0 0.0
2017-Oct-11 17:28N 28°29' W 016°13'9 0.5
2017-Oct-10 23:57N 28°23' W 016°06'0 0.8
2017-Oct-10 23:30N 28°24' W 016°06'1 1.0
2017-Oct-10 23:00N 28°24' W 016°06'1 1.4
2017-Oct-10 22:30N 28°25' W 016°06'2 3.7
2017-Oct-10 22:00N 28°26' W 016°05'612.2
2017-Oct-10 21:31N 28°25' W 015°58'612.3
2017-Oct-10 21:00N 28°30' W 015°53'611.9
2017-Oct-10 20:30N 28°34' W 015°48'612.0
2017-Oct-10 20:00N 28°38' W 015°43'612.0
2017-Oct-10 19:30N 28°42' W 015°38'712.1
2017-Oct-10 18:53N 28°47' W 015°32'512.1
2017-Oct-10 18:30N 28°51' W 015°28'612.1
2017-Oct-10 18:00N 28°55' W 015°23'612.3
2017-Oct-10 17:29N 28°59' W 015°18'612.4
2017-Oct-10 17:00N 29°03' W 015°12'712.2
2017-Oct-10 16:27N 29°08' W 015°07'511.8
2017-Oct-10 16:00N 29°11' W 015°02'611.8
2017-Oct-10 15:30N 29°15' W 014°57'611.8
2017-Oct-10 15:01N 29°19' W 014°52'1211.9
2017-Oct-10 14:01N 29°27' W 014°42'612.0
2017-Oct-10 13:29N 29°31' W 014°37'612.1
2017-Oct-10 12:59N 29°35' W 014°32'32412.2
2017-Oct-09 10:33N 33°14' W 009°52'114.4
2017-Oct-09 10:29N 33°14' W 009°51'6215.1
2017-Oct-09 06:22N 33°57' W 008°56'720.0
2017-Oct-09 06:00N 34°01' W 008°50'1020.2
2017-Oct-09 05:30N 34°08' W 008°41'1020.1
2017-Oct-09 05:00N 34°15' W 008°32'1020.0
2017-Oct-09 04:30N 34°22' W 008°23'1019.9
2017-Oct-09 04:00N 34°28' W 008°14'1019.8
2017-Oct-09 03:29N 34°36' W 008°05'1219.8
2017-Oct-09 02:53N 34°44' W 007°55'2220.1
2017-Oct-09 01:48N 34°58' W 007°35'620.2
2017-Oct-09 01:31N 35°02' W 007°29'1020.2
2017-Oct-09 01:00N 35°09' W 007°20'1020.0
2017-Oct-09 00:30N 35°16' W 007°12'1019.4
2017-Oct-09 00:00N 35°22' W 007°03'1020.0
2017-Oct-08 23:30N 35°29' W 006°53'1820.2
2017-Oct-08 22:38N 35°41' W 006°38'920.6
2017-Oct-08 22:12N 35°47' W 006°29'420.5
2017-Oct-08 22:00N 35°50' W 006°26'1219.5
2017-Oct-08 21:23N 35°57' W 006°14'33 0.8
2017-Oct-07 05:13N 35°52' W 005°34'0 0.0
2017-Oct-07 04:49N 35°52' W 005°34'0 0.1
2017-Oct-07 02:07N 35°52' W 005°34'0 0.1
2017-Oct-07 01:49N 35°52' W 005°34'0 0.0
2017-Oct-06 18:58N 35°52' W 005°34'128 8.8
2017-Oct-06 04:25N 34°18' W 007°20'614.2
2017-Oct-06 03:59N 34°13' W 007°24'33 1.0
2017-Oct-04 18:15N 33°42' W 007°35'0 0.0
2017-Oct-04 17:57N 33°42' W 007°35'48 1.3
2017-Oct-03 03:34N 34°27' W 007°15'2114.5
2017-Oct-03 02:05N 34°46' W 007°03'114.5
2017-Oct-03 02:00N 34°47' W 007°02'113 6.7
2017-Oct-02 09:16N 36°07' W 005°24'0 0.3
2017-Oct-02 08:58N 36°07' W 005°24'2 4.0
2017-Oct-02 08:31N 36°06' W 005°23'2 4.3
2017-Oct-02 08:00N 36°04' W 005°22'1 1.6
2017-Oct-02 07:30N 36°03' W 005°21'611.5
2017-Oct-02 07:00N 36°03' W 005°14'  

Dump ship's entire track history